Time;durP1;ratioP1;P1;durP2;ratioP2;P2;SDS_P1;SDS_P2;PMS_P1;PMS_P2;Temp;Humidity;BMP_temperature;BMP_pressure;BME280_temperature;BME280_humidity;BME280_pressure;Samples;Min_cycle;Max_cycle;Signal;HPM_P1;HPM_P2
2023/12/30 00:01:40;;;;;;;;;;;;;;;15.64;48.10;101089.22;5062119;28;1973;-55
2023/12/30 00:04:06;;;;;;;;;;;;;;;15.50;48.11;101095.38;5075612;28;1034;-52
2023/12/30 00:06:33;;;;;;;;;;;;;;;16.03;47.72;101094.72;5075087;28;882;-52
2023/12/30 00:08:58;;;;;;;;;;;;;;;17.38;44.28;101096.41;5062415;28;1125;-53
2023/12/30 00:11:24;;;;;;;;;;;;;;;16.62;45.73;101097.09;5062599;28;1001;-52
2023/12/30 00:13:50;;;;;;;;;;;;;;;16.07;47.04;101095.38;5062011;28;1133;-48
2023/12/30 00:16:15;;;;;;;;;;;;;;;15.74;47.93;101092.13;5055655;28;957;-52
2023/12/30 00:18:41;;;;;;;;;;;;;;;15.69;48.25;101088.03;5075141;28;945;-52
2023/12/30 00:21:06;;;;;;;;;;;;;;;17.18;44.74;101089.81;5061840;28;1898;-51
2023/12/30 00:23:33;;;;;;;;;;;;;;;16.69;45.61;101092.22;5070387;28;2506;-54
2023/12/30 00:25:58;;;;;;;;;;;;;;;16.05;46.91;101091.94;5055515;28;1058;-52
2023/12/30 00:28:24;;;;;;;;;;;;;;;15.72;47.89;101094.00;5055477;28;996;-54
2023/12/30 00:30:49;;;;;;;;;;;;;;;15.48;48.39;101097.25;5062232;28;1226;-56
2023/12/30 00:33:15;;;;;;;;;;;;;;;16.12;47.15;101095.91;5075249;28;1071;-56
2023/12/30 00:35:40;;;;;;;;;;;;;;;17.38;44.16;101093.75;5075056;28;1012;-53
2023/12/30 00:38:06;;;;;;;;;;;;;;;16.49;45.81;101094.44;5061815;28;1111;-53
2023/12/30 00:40:32;;;;;;;;;;;;;;;15.96;47.25;101096.03;5043788;28;1894;-53
2023/12/30 00:42:57;;;;;;;;;;;;;;;15.61;47.83;101091.19;5050895;28;1132;-54
2023/12/30 00:45:23;;;;;;;;;;;;;;;15.48;48.13;101094.59;5057393;28;1276;-56
2023/12/30 00:47:48;;;;;;;;;;;;;;;16.75;45.52;101089.13;5076684;28;1091;-53
2023/12/30 00:50:14;;;;;;;;;;;;;;;17.37;43.99;101092.88;5079526;28;1079;-55
2023/12/30 00:52:40;;;;;;;;;;;;;;;16.39;46.05;101094.19;5077518;28;940;-54
2023/12/30 00:55:06;;;;;;;;;;;;;;;15.91;47.19;101092.84;5067690;28;2572;-56
2023/12/30 00:57:32;;;;;;;;;;;;;;;15.62;47.87;101092.88;5065486;28;1206;-54
2023/12/30 00:59:57;;;;;;;;;;;;;;;16.18;47.01;101086.72;5065709;28;1898;-54
2023/12/30 01:02:23;;;;;;;;;;;;;;;17.12;44.14;101052.09;5078795;28;1008;-56
2023/12/30 01:04:48;;;;;;;;;;;;;;;16.36;46.27;101089.94;5073472;28;1119;-54
2023/12/30 01:07:14;;;;;;;;;;;;;;;15.87;47.52;101086.88;5065352;28;1099;-51
2023/12/30 01:09:40;;;;;;;;;;;;;;;15.60;47.74;101087.69;5058965;28;1161;-53
2023/12/30 01:12:05;;;;;;;;;;;;;;;15.65;48.20;101084.72;5059453;28;985;-52
2023/12/30 01:14:31;;;;;;;;;;;;;;;17.12;44.76;101077.81;5078848;28;1095;-55
2023/12/30 01:16:56;;;;;;;;;;;;;;;16.93;44.89;101073.75;5076508;28;1079;-56
2023/12/30 01:19:23;;;;;;;;;;;;;;;16.15;46.44;101066.53;5065777;28;1020;-54
2023/12/30 01:21:49;;;;;;;;;;;;;;;15.77;47.39;101069.84;5060299;28;1906;-52
2023/12/30 01:24:15;;;;;;;;;;;;;;;15.55;48.16;101063.25;5065360;28;2461;-52
2023/12/30 01:26:41;;;;;;;;;;;;;;;15.51;48.58;101062.63;5060724;28;1151;-55
2023/12/30 01:29:06;;;;;;;;;;;;;;;16.97;45.32;101061.09;5076335;28;1092;-55
2023/12/30 01:31:34;;;;;;;;;;;;;;;17.04;44.42;101062.38;5058633;28;1059;-54
2023/12/30 01:34:00;;;;;;;;;;;;;;;16.18;46.51;101062.81;5039996;28;1196;-56
2023/12/30 01:36:25;;;;;;;;;;;;;;;15.80;47.06;101051.06;5040653;28;1259;-56
2023/12/30 01:38:51;;;;;;;;;;;;;;;15.52;47.92;101056.34;5071600;28;1277;-55
2023/12/30 01:41:18;;;;;;;;;;;;;;;16.12;47.06;101055.25;5071195;28;1973;-52
2023/12/30 01:43:44;;;;;;;;;;;;;;;17.41;43.93;101056.28;5059659;28;1158;-55
2023/12/30 01:46:09;;;;;;;;;;;;;;;16.83;44.86;101051.44;5065698;28;996;-51
2023/12/30 01:48:35;;;;;;;;;;;;;;;16.07;46.72;101060.00;5076887;28;1242;-52
2023/12/30 01:51:01;;;;;;;;;;;;;;;15.69;47.57;101051.78;5065581;28;1079;-50
2023/12/30 01:53:30;;;;;;;;;;;;;;;15.62;47.85;101059.28;5043292;28;1858;-51
2023/12/30 01:55:56;;;;;;;;;;;;;;;16.61;45.78;101058.22;5046969;28;1243;-48
2023/12/30 01:58:21;;;;;;;;;;;;;;;17.18;44.35;101058.78;5039168;28;1117;-51
2023/12/30 02:00:48;;;;;;;;;;;;;;;16.23;46.25;101054.56;5052251;28;1910;-52
2023/12/30 02:03:14;;;;;;;;;;;;;;;15.79;47.72;101062.63;5077869;28;1146;-49
2023/12/30 02:05:39;;;;;;;;;;;;;;;15.60;47.86;101057.69;5072871;28;1028;-52
2023/12/30 02:08:05;;;;;;;;;;;;;;;16.15;47.04;101055.03;5053510;28;1012;-48
2023/12/30 02:10:31;;;;;;;;;;;;;;;17.44;43.95;101060.53;5057505;28;1071;-53
2023/12/30 02:12:56;;;;;;;;;;;;;;;16.52;45.75;101065.84;5058833;28;1239;-57
2023/12/30 02:15:26;;;;;;;;;;;;;;;15.96;47.13;101058.03;5047122;28;1114;-55
2023/12/30 02:17:55;;;;;;;;;;;;;;;15.64;47.92;101053.88;5058804;28;1287;-54
2023/12/30 02:20:20;;;;;;;;;;;;;;;15.51;48.09;101048.50;5059250;28;1917;-53
2023/12/30 02:22:46;;;;;;;;;;;;;;;15.82;47.60;101054.47;5077155;28;1087;-55
2023/12/30 02:25:12;;;;;;;;;;;;;;;17.21;44.29;101053.25;5064335;28;2655;-55
2023/12/30 02:27:37;;;;;;;;;;;;;;;16.47;45.93;101056.50;5045761;28;1007;-54
2023/12/30 02:30:03;;;;;;;;;;;;;;;15.92;46.90;101052.06;5076984;28;996;-56
2023/12/30 02:32:29;;;;;;;;;;;;;;;15.59;47.81;101046.22;5063803;28;1342;-54
2023/12/30 02:34:54;;;;;;;;;;;;;;;15.45;48.05;101049.72;5077584;28;1047;-51
2023/12/30 02:37:20;;;;;;;;;;;;;;;16.94;44.78;101059.50;5077208;28;1146;-52
2023/12/30 02:39:45;;;;;;;;;;;;;;;17.02;44.28;101049.19;5076928;28;1078;-51
2023/12/30 02:42:11;;;;;;;;;;;;;;;16.20;46.57;101044.97;5076338;28;1989;-49
2023/12/30 02:44:37;;;;;;;;;;;;;;;15.76;47.43;101047.78;5058306;28;1080;-52
2023/12/30 02:47:02;;;;;;;;;;;;;;;15.53;47.76;101047.44;5063575;28;1110;-54
2023/12/30 02:49:30;;;;;;;;;;;;;;;16.50;46.31;101050.97;5045224;28;1330;-55
2023/12/30 02:51:57;;;;;;;;;;;;;;;17.40;43.71;101049.25;5058734;28;1051;-54
2023/12/30 02:54:23;;;;;;;;;;;;;;;16.34;45.92;101051.16;5050620;28;2091;-56
2023/12/30 02:56:48;;;;;;;;;;;;;;;15.89;46.92;101050.50;5064422;28;1142;-53
2023/12/30 02:59:14;;;;;;;;;;;;;;;15.61;47.88;101059.38;5045575;28;1032;-55
2023/12/30 03:01:39;;;;;;;;;;;;;;;16.36;46.27;101063.41;5050999;28;1918;-52
2023/12/30 03:04:05;;;;;;;;;;;;;;;17.38;43.75;101057.34;5057107;28;992;-54
2023/12/30 03:06:30;;;;;;;;;;;;;;;16.39;46.10;101055.22;5076350;28;869;-53
2023/12/30 03:08:56;;;;;;;;;;;;;;;15.91;46.87;101061.00;5076179;28;1154;-51
2023/12/30 03:11:22;;;;;;;;;;;;;;;15.61;47.79;101059.38;5068564;28;1143;-54
2023/12/30 03:13:48;;;;;;;;;;;;;;;15.62;47.82;101061.94;5070549;28;1226;-53
2023/12/30 03:16:14;;;;;;;;;;;;;;;17.11;44.69;101065.47;5077019;28;1095;-53
2023/12/30 03:18:43;;;;;;;;;;;;;;;16.73;44.92;101069.81;5074821;28;1103;-54
2023/12/30 03:21:09;;;;;;;;;;;;;;;16.00;46.68;101070.16;5064529;28;1910;-51
2023/12/30 03:23:37;;;;;;;;;;;;;;;15.72;47.38;101063.97;5065536;28;1927;-55
2023/12/30 03:26:03;;;;;;;;;;;;;;;15.47;48.07;101066.41;5065183;28;1176;-51
2023/12/30 03:28:29;;;;;;;;;;;;;;;16.86;45.22;101078.66;5062683;28;1225;-53
2023/12/30 03:30:55;;;;;;;;;;;;;;;17.09;44.35;101070.91;5057265;28;1851;-54
2023/12/30 03:33:21;;;;;;;;;;;;;;;16.17;46.53;101079.69;5075693;28;1091;-54
2023/12/30 03:35:46;;;;;;;;;;;;;;;15.78;47.11;101075.03;5054613;28;1054;-51
2023/12/30 03:38:12;;;;;;;;;;;;;;;15.57;48.01;101074.63;5070245;28;1046;-51
2023/12/30 03:40:37;;;;;;;;;;;;;;;16.05;47.15;101076.03;5068020;28;1910;-55
2023/12/30 03:43:03;;;;;;;;;;;;;;;17.35;44.01;101080.66;5043425;28;1227;-53
2023/12/30 03:45:29;;;;;;;;;;;;;;;16.60;45.42;101073.31;5068445;28;1051;-53
2023/12/30 03:47:54;;;;;;;;;;;;;;;15.97;46.60;101083.59;5056816;28;1068;-54
2023/12/30 03:50:20;;;;;;;;;;;;;;;15.66;47.47;101086.44;5068484;28;1072;-53
2023/12/30 03:52:46;;;;;;;;;;;;;;;15.45;47.79;101096.63;5070102;28;1052;-54
2023/12/30 03:55:12;;;;;;;;;;;;;;;16.73;45.27;101091.91;5038450;28;2206;-54
2023/12/30 03:57:38;;;;;;;;;;;;;;;17.36;43.48;101088.53;5052197;28;1249;-52
2023/12/30 04:00:03;;;;;;;;;;;;;;;16.32;45.78;101096.41;5057524;28;1905;-50
2023/12/30 04:02:37;;;;;;;;;;;;;;;15.85;46.99;101093.25;5059807;28;928;-53
2023/12/30 04:05:03;;;;;;;;;;;;;;;15.63;47.79;101097.25;5064211;28;1134;-55
2023/12/30 04:07:29;;;;;;;;;;;;;;;16.23;46.63;101094.38;5057160;28;1063;-52
2023/12/30 04:09:55;;;;;;;;;;;;;;;17.50;43.69;101099.97;5075824;28;1035;-53
2023/12/30 04:12:20;;;;;;;;;;;;;;;16.70;44.96;101104.56;5055731;28;1130;-51
2023/12/30 04:14:47;;;;;;;;;;;;;;;16.01;46.61;101103.72;5046549;28;1256;-57
2023/12/30 04:17:13;;;;;;;;;;;;;;;15.70;47.54;101103.84;5055286;28;1377;-52
2023/12/30 04:19:38;;;;;;;;;;;;;;;15.74;47.33;101105.38;5041095;28;1333;-51
2023/12/30 04:22:04;;;;;;;;;;;;;;;17.29;44.00;101105.88;5057727;28;1913;-52
2023/12/30 04:24:30;;;;;;;;;;;;;;;16.77;44.77;101112.00;5048840;28;2752;-51
2023/12/30 04:26:56;;;;;;;;;;;;;;;16.03;46.58;101109.81;5056384;28;1042;-52
2023/12/30 04:29:22;;;;;;;;;;;;;;;15.76;47.06;101103.50;5072796;28;1178;-52
2023/12/30 04:31:48;;;;;;;;;;;;;;;15.55;47.98;101105.69;5056600;28;1126;-51
2023/12/30 04:34:13;;;;;;;;;;;;;;;16.47;45.94;101109.59;5047286;28;1225;-48
2023/12/30 04:36:39;;;;;;;;;;;;;;;17.34;43.66;101105.53;5047197;28;1120;-52
2023/12/30 04:39:05;;;;;;;;;;;;;;;16.42;45.61;101128.50;5049977;28;1245;-52
2023/12/30 04:41:30;;;;;;;;;;;;;;;15.91;46.85;101111.41;5059518;28;1962;-50
2023/12/30 04:43:56;;;;;;;;;;;;;;;15.59;47.42;101116.94;5049619;28;1159;-52
2023/12/30 04:46:22;;;;;;;;;;;;;;;15.87;47.18;101107.22;5061087;28;1384;-48
2023/12/30 04:48:52;;;;;;;;;;;;;;;17.30;43.92;101106.72;5079406;28;1114;-50
2023/12/30 04:51:18;;;;;;;;;;;;;;;16.43;45.43;101103.66;5047507;28;1339;-52
2023/12/30 04:53:43;;;;;;;;;;;;;;;15.87;47.04;101107.22;5054266;28;2354;-52
2023/12/30 04:56:16;;;;;;;;;;;;;;;15.59;47.43;101101.91;5045304;28;1411;-47
2023/12/30 04:58:42;;;;;;;;;;;;;;;16.00;46.90;101107.31;5053738;28;1258;-53
2023/12/30 05:01:08;;;;;;;;;;;;;;;17.39;43.63;101114.03;5047620;28;1906;-51
2023/12/30 05:03:34;;;;;;;;;;;;;;;16.78;44.76;101110.22;5079076;28;916;-51
2023/12/30 05:06:00;;;;;;;;;;;;;;;16.08;46.59;101118.28;5057715;28;1144;-48
2023/12/30 05:08:25;;;;;;;;;;;;;;;15.74;47.33;101112.47;5065299;28;904;-52
2023/12/30 05:10:51;;;;;;;;;;;;;;;15.47;47.78;101126.53;5063906;28;1134;-52
2023/12/30 05:13:16;;;;;;;;;;;;;;;15.99;46.88;101129.50;5078805;28;1266;-51
2023/12/30 05:15:42;;;;;;;;;;;;;;;17.30;43.92;101117.38;5078583;28;1008;-56
2023/12/30 05:18:08;;;;;;;;;;;;;;;16.48;45.51;101122.78;5078466;28;1004;-56
2023/12/30 05:20:34;;;;;;;;;;;;;;;15.91;46.79;101129.97;5072192;28;1968;-52
2023/12/30 05:23:00;;;;;;;;;;;;;;;15.59;47.57;101130.22;5064370;28;2568;-53
2023/12/30 05:25:26;;;;;;;;;;;;;;;16.96;44.93;101126.69;5069065;28;1051;-58
2023/12/30 05:27:51;;;;;;;;;;;;;;;16.00;46.54;101125.91;5061121;28;1213;-56
2023/12/30 05:30:17;;;;;;;;;;;;;;;15.31;48.66;101138.09;5058844;28;1103;-53
2023/12/30 05:32:42;;;;;;;;;;;;;;;16.82;45.27;101138.25;5071011;28;1183;-54
2023/12/30 05:35:08;;;;;;;;;;;;;;;15.54;47.38;101130.50;5058202;28;1148;-54
2023/12/30 05:37:33;;;;;;;;;;;;;;;15.34;48.19;101129.94;5074927;28;1075;-55
2023/12/30 05:39:59;;;;;;;;;;;;;;;16.84;45.30;101133.69;5062011;28;1956;-50
2023/12/30 05:42:25;;;;;;;;;;;;;;;15.53;47.86;101134.94;5058362;28;1110;-50
2023/12/30 05:44:51;;;;;;;;;;;;;;;15.20;47.16;101127.31;5057031;28;908;-56
2023/12/30 05:47:16;;;;;;;;;;;;;;;16.18;47.42;101125.66;5077126;28;1189;-54
2023/12/30 05:49:42;;;;;;;;;;;;;;;16.14;46.90;101117.06;5073557;28;1067;-56
2023/12/30 05:52:08;;;;;;;;;;;;;;;15.30;47.49;101121.31;5058342;28;1016;-56
2023/12/30 05:54:34;;;;;;;;;;;;;;;16.02;48.08;101124.00;5069233;28;1941;-52
2023/12/30 05:57:00;;;;;;;;;;;;;;;16.40;46.29;101125.94;5071375;28;1275;-58
2023/12/30 05:59:26;;;;;;;;;;;;;;;15.52;47.06;101120.00;5077143;28;1051;-51
2023/12/30 06:01:52;;;;;;;;;;;;;;;16.48;47.24;101130.75;5075434;28;1909;-54
2023/12/30 06:04:17;;;;;;;;;;;;;;;16.24;46.87;101120.81;5064235;28;1059;-52
2023/12/30 06:06:43;;;;;;;;;;;;;;;15.58;47.08;101117.91;5070517;28;1518;-52
2023/12/30 06:09:09;;;;;;;;;;;;;;;15.30;47.86;101126.63;5074620;28;880;-48
2023/12/30 06:11:35;;;;;;;;;;;;;;;17.03;45.67;101132.44;5076219;28;1070;-50
2023/12/30 06:14:00;;;;;;;;;;;;;;;15.73;47.55;101134.66;5077251;28;1238;-53
2023/12/30 06:16:26;;;;;;;;;;;;;;;16.73;46.66;101139.72;5067801;28;1119;-51
2023/12/30 06:18:51;;;;;;;;;;;;;;;16.59;45.89;101140.66;5060937;28;1064;-50
2023/12/30 06:21:17;;;;;;;;;;;;;;;15.72;47.16;101136.44;5071477;28;1901;-48
2023/12/30 06:23:43;;;;;;;;;;;;;;;15.45;47.66;101131.91;5066783;28;2264;-50
2023/12/30 06:26:08;;;;;;;;;;;;;;;16.50;46.44;101134.16;5067723;28;1222;-50
2023/12/30 06:28:34;;;;;;;;;;;;;;;15.61;47.16;101141.59;5073954;28;1004;-52
2023/12/30 06:30:59;;;;;;;;;;;;;;;15.65;48.09;101143.06;5067853;28;1031;-52
2023/12/30 06:33:25;;;;;;;;;;;;;;;16.64;46.17;101145.66;5073084;28;1015;-51
2023/12/30 06:35:51;;;;;;;;;;;;;;;15.65;47.18;101148.38;5059351;28;1146;-54
2023/12/30 06:38:16;;;;;;;;;;;;;;;15.86;48.25;101148.84;5063674;28;1060;-53
2023/12/30 06:40:42;;;;;;;;;;;;;;;16.78;45.96;101152.72;5068535;28;1906;-47
2023/12/30 06:43:08;;;;;;;;;;;;;;;15.67;47.68;101144.72;5057783;28;1095;-55
2023/12/30 06:45:34;;;;;;;;;;;;;;;15.43;47.12;101153.22;5074652;28;1037;-51
2023/12/30 06:47:59;;;;;;;;;;;;;;;17.20;45.46;101155.22;5073015;28;1282;-52
2023/12/30 06:50:26;;;;;;;;;;;;;;;15.95;46.98;101158.00;5073158;28;1417;-49
2023/12/30 06:52:54;;;;;;;;;;;;;;;15.46;47.19;101154.84;5071580;28;1087;-55
2023/12/30 06:55:19;;;;;;;;;;;;;;;15.68;47.90;101164.13;5066765;28;2674;-54
2023/12/30 06:57:45;;;;;;;;;;;;;;;16.01;47.38;101156.81;5039714;28;1436;-55
2023/12/30 07:00:10;;;;;;;;;;;;;;;15.46;47.41;101162.81;5069452;28;1906;-54
2023/12/30 07:02:36;;;;;;;;;;;;;;;16.40;47.42;101168.44;5071562;28;1584;-50
2023/12/30 07:05:02;;;;;;;;;;;;;;;16.71;46.11;101165.56;5071360;28;1012;-56
2023/12/30 07:07:28;;;;;;;;;;;;;;;15.84;47.28;101161.34;5073700;28;1083;-53
2023/12/30 07:09:53;;;;;;;;;;;;;;;16.53;47.38;101157.03;5072056;28;1242;-55
2023/12/30 07:12:19;;;;;;;;;;;;;;;16.34;46.57;101157.38;5073304;28;1207;-54
2023/12/30 07:14:44;;;;;;;;;;;;;;;15.68;47.06;101150.88;5076096;28;1195;-53
2023/12/30 07:17:10;;;;;;;;;;;;;;;15.52;46.22;101161.56;5075646;28;978;-58
2023/12/30 07:19:35;;;;;;;;;;;;;;;16.27;47.33;101159.56;5074420;28;1251;-51
2023/12/30 07:22:01;;;;;;;;;;;;;;;16.19;47.33;101159.22;5073865;28;1910;-50
2023/12/30 07:24:27;;;;;;;;;;;;;;;15.61;47.28;101161.00;5069608;28;2381;-53
2023/12/30 07:26:52;;;;;;;;;;;;;;;16.28;47.53;101162.13;5075227;28;1181;-50
2023/12/30 07:29:18;;;;;;;;;;;;;;;15.93;47.36;101167.03;5075647;28;1258;-50
2023/12/30 07:31:44;;;;;;;;;;;;;;;15.48;47.07;101162.72;5075163;28;1222;-53
2023/12/30 07:34:10;;;;;;;;;;;;;;;15.23;46.47;101161.56;5075264;28;1254;-48
2023/12/30 07:36:36;;;;;;;;;;;;;;;17.06;46.15;101163.25;5075199;28;1207;-55
2023/12/30 07:39:01;;;;;;;;;;;;;;;15.71;47.80;101158.63;5076035;28;1078;-53
2023/12/30 07:41:27;;;;;;;;;;;;;;;17.16;45.83;101161.72;5075053;28;1976;-51
2023/12/30 07:43:53;;;;;;;;;;;;;;;17.01;45.73;101161.78;5072531;28;1269;-53
2023/12/30 07:46:19;;;;;;;;;;;;;;;15.97;47.05;101172.03;5075414;28;1313;-51
2023/12/30 07:48:45;;;;;;;;;;;;;;;15.60;46.74;101169.88;5075214;28;1203;-49
2023/12/30 07:51:10;;;;;;;;;;;;;;;16.02;47.57;101161.16;5075599;28;1250;-48
2023/12/30 07:53:36;;;;;;;;;;;;;;;16.79;46.21;101174.81;5055010;28;2272;-50
2023/12/30 07:56:02;;;;;;;;;;;;;;;15.88;47.32;101169.97;5074893;28;1266;-47
2023/12/30 07:58:27;;;;;;;;;;;;;;;15.54;47.13;101170.28;5061080;28;1083;-50
2023/12/30 08:00:53;;;;;;;;;;;;;;;16.51;47.30;101177.50;5063360;28;1906;-49
2023/12/30 08:03:18;;;;;;;;;;;;;;;16.36;47.04;101176.72;5073745;28;1184;-53
2023/12/30 08:05:44;;;;;;;;;;;;;;;15.76;47.20;101171.59;5073287;28;1207;-50
2023/12/30 08:08:12;;;;;;;;;;;;;;;15.54;46.92;101178.22;5064003;28;1047;-54
2023/12/30 08:10:37;;;;;;;;;;;;;;;17.19;46.09;101188.09;5074548;28;1199;-51
2023/12/30 08:13:03;;;;;;;;;;;;;;;16.21;47.11;101182.06;5075657;28;1227;-52
2023/12/30 08:15:29;;;;;;;;;;;;;;;15.66;47.54;101180.09;5074597;28;1078;-52
2023/12/30 08:17:54;;;;;;;;;;;;;;;16.79;47.06;101188.09;5075171;28;1211;-50
2023/12/30 08:20:20;;;;;;;;;;;;;;;16.25;47.15;101182.69;5074368;28;1971;-51
2023/12/30 08:22:46;;;;;;;;;;;;;;;15.70;47.51;101191.38;5075543;28;1266;-49
2023/12/30 08:25:12;;;;;;;;;;;;;;;16.45;47.54;101183.22;5072910;28;1788;-50
2023/12/30 08:27:37;;;;;;;;;;;;;;;16.38;46.75;101178.28;5062083;28;1131;-52
2023/12/30 08:30:04;;;;;;;;;;;;;;;15.77;47.45;101171.50;5075851;28;1050;-50
2023/12/30 08:32:29;;;;;;;;;;;;;;;15.75;48.05;101178.69;5073737;28;1054;-51
2023/12/30 08:34:56;;;;;;;;;;;;;;;16.52;46.96;101180.06;5069900;28;1306;-51
2023/12/30 08:37:22;;;;;;;;;;;;;;;15.75;47.14;101178.69;5067965;28;1322;-52
2023/12/30 08:39:47;;;;;;;;;;;;;;;15.52;47.00;101177.47;5064885;28;1269;-49
2023/12/30 08:42:13;;;;;;;;;;;;;;;16.27;47.75;101178.16;5074281;28;1905;-53
2023/12/30 08:44:43;;;;;;;;;;;;;;;16.55;46.75;101173.69;5072235;28;1012;-50
2023/12/30 08:47:12;;;;;;;;;;;;;;;15.77;47.19;101175.94;5066866;28;1047;-50
2023/12/30 08:49:37;;;;;;;;;;;;;;;17.20;46.15;101167.69;5056583;28;1108;-52
2023/12/30 08:52:03;;;;;;;;;;;;;;;16.06;47.36;101161.81;5072244;28;1389;-49
2023/12/30 08:54:29;;;;;;;;;;;;;;;15.71;47.05;101163.06;5074122;28;2469;-56
2023/12/30 08:56:55;;;;;;;;;;;;;;;17.00;46.58;101160.06;5074468;28;1243;-51
2023/12/30 08:59:21;;;;;;;;;;;;;;;16.68;46.50;101162.25;5074557;28;1320;-51
2023/12/30 09:01:47;;;;;;;;;;;;;;;15.95;47.36;101146.56;5074845;28;1906;-53
2023/12/30 09:04:12;;;;;;;;;;;;;;;16.06;47.80;101145.88;5074936;28;1341;-49
2023/12/30 09:06:38;;;;;;;;;;;;;;;16.70;46.27;101142.59;5074857;28;1342;-50
2023/12/30 09:09:04;;;;;;;;;;;;;;;15.92;47.30;101131.66;5071034;28;1111;-52
2023/12/30 09:11:30;;;;;;;;;;;;;;;16.30;47.70;101132.81;5075364;28;1139;-49
2023/12/30 09:13:55;;;;;;;;;;;;;;;16.53;46.89;101128.63;5057892;28;1079;-54
2023/12/30 09:16:21;;;;;;;;;;;;;;;15.84;47.33;101128.66;5071879;28;1003;-47
2023/12/30 09:18:46;;;;;;;;;;;;;;;16.47;47.62;101120.22;5058925;28;1056;-54
2023/12/30 09:21:12;;;;;;;;;;;;;;;16.94;45.82;101122.44;5064280;28;1890;-49
2023/12/30 09:23:38;;;;;;;;;;;;;;;16.02;47.39;101116.91;5068814;28;2450;-50
2023/12/30 09:26:04;;;;;;;;;;;;;;;15.70;46.93;101114.47;5074370;28;1067;-51
2023/12/30 09:28:30;;;;;;;;;;;;;;;15.52;46.19;101121.78;5078481;28;1441;-49
2023/12/30 09:30:56;;;;;;;;;;;;;;;17.17;46.00;101114.69;5077792;28;1099;-49
2023/12/30 09:33:22;;;;;;;;;;;;;;;16.05;47.41;101107.03;5071539;28;1201;-49
2023/12/30 09:35:54;;;;;;;;;;;;;;;15.65;47.18;101104.16;5071767;28;1078;-50
2023/12/30 09:38:21;;;;;;;;;;;;;;;15.80;47.42;101101.47;5074212;28;1108;-50
2023/12/30 09:40:46;;;;;;;;;;;;;;;16.74;46.28;101103.38;5078421;28;1968;-53
2023/12/30 09:43:12;;;;;;;;;;;;;;;15.74;47.77;101104.53;5075698;28;1047;-49
2023/12/30 09:45:39;;;;;;;;;;;;;;;15.61;46.81;101093.84;5052337;28;1163;-47
2023/12/30 09:48:05;;;;;;;;;;;;;;;15.44;46.34;101095.75;5053962;28;1388;-47
2023/12/30 09:50:31;;;;;;;;;;;;;;;16.53;47.11;101094.09;5067603;28;1066;-54
2023/12/30 09:52:56;;;;;;;;;;;;;;;16.09;47.29;101089.97;5077461;28;2492;-51
2023/12/30 09:55:22;;;;;;;;;;;;;;;15.62;47.14;101082.28;5058359;28;1056;-49
2023/12/30 09:57:48;;;;;;;;;;;;;;;16.81;46.70;101082.56;5071410;28;1179;-47
2023/12/30 10:00:15;;;;;;;;;;;;;;;16.28;47.21;101074.50;5058091;28;1959;-47
2023/12/30 10:02:41;;;;;;;;;;;;;;;15.73;46.94;101069.19;5057622;28;997;-46
2023/12/30 10:05:07;;;;;;;;;;;;;;;16.14;47.83;101062.16;5064834;28;1567;-50
2023/12/30 10:07:34;;;;;;;;;;;;;;;16.48;46.67;101060.88;5071042;28;1044;-48
2023/12/30 10:09:59;;;;;;;;;;;;;;;15.76;47.05;101058.41;5067114;28;1060;-48
2023/12/30 10:12:25;;;;;;;;;;;;;;;17.15;46.08;101060.81;5077300;28;1214;-49
2023/12/30 10:14:51;;;;;;;;;;;;;;;16.03;47.51;101052.25;5073417;28;1091;-49
2023/12/30 10:17:17;;;;;;;;;;;;;;;15.69;47.15;101050.91;5077796;28;1198;-47
2023/12/30 10:19:44;;;;;;;;;;;;;;;16.56;47.44;101060.34;5075209;28;1051;-48
2023/12/30 10:22:09;;;;;;;;;;;;;;;16.61;46.63;101058.22;5066978;28;1919;-52
2023/12/30 10:24:35;;;;;;;;;;;;;;;15.87;46.98;101060.34;5065222;28;2369;-50
2023/12/30 10:27:04;;;;;;;;;;;;;;;15.65;46.64;101052.91;5049955;28;1315;-50
2023/12/30 10:29:30;;;;;;;;;;;;;;;15.48;46.44;101046.06;5072032;28;1063;-50
2023/12/30 10:32:00;;;;;;;;;;;;;;;15.55;46.85;101042.03;5057238;28;1165;-49
2023/12/30 10:34:26;;;;;;;;;;;;;;;17.20;45.60;101040.91;5059806;28;1258;-52
2023/12/30 10:36:51;;;;;;;;;;;;;;;15.97;47.40;101035.84;5076705;28;1128;-55
2023/12/30 10:39:20;;;;;;;;;;;;;;;15.68;47.05;101034.16;5058278;28;976;-51
2023/12/30 10:41:46;;;;;;;;;;;;;;;17.13;46.12;101035.16;5073271;28;1914;-51
2023/12/30 10:44:13;;;;;;;;;;;;;;;16.43;47.01;101025.81;5058025;28;1076;-54
2023/12/30 10:46:38;;;;;;;;;;;;;;;15.89;47.11;101023.09;5066004;28;985;-55
2023/12/30 10:49:04;;;;;;;;;;;;;;;15.55;46.98;101018.19;5049357;28;1110;-51
2023/12/30 10:51:30;;;;;;;;;;;;;;;17.05;46.44;101018.03;5055038;28;1063;-49
2023/12/30 10:54:05;;;;;;;;;;;;;;;16.20;47.01;101020.25;5076802;28;2219;-51
2023/12/30 10:56:39;;;;;;;;;;;;;;;15.76;47.15;101012.44;5076757;28;1111;-48
2023/12/30 10:59:05;;;;;;;;;;;;;;;15.58;46.74;101011.84;5054191;28;918;-55
2023/12/30 11:01:33;;;;;;;;;;;;;;;16.55;47.30;101010.84;5075812;28;2013;-46
2023/12/30 11:03:58;;;;;;;;;;;;;;;15.83;47.28;100999.63;5076862;28;1015;-52
2023/12/30 11:06:26;;;;;;;;;;;;;;;15.60;46.72;100997.53;5063529;28;1166;-48
2023/12/30 11:08:52;;;;;;;;;;;;;;;17.01;45.79;100990.84;5056458;28;998;-50
2023/12/30 11:11:19;;;;;;;;;;;;;;;15.88;47.63;100992.22;5073653;28;1051;-48
2023/12/30 11:13:44;;;;;;;;;;;;;;;15.61;46.91;100993.06;5073717;28;1405;-51
2023/12/30 11:16:16;;;;;;;;;;;;;;;15.78;47.94;100994.63;5059832;28;1110;-50
2023/12/30 11:18:49;;;;;;;;;;;;;;;16.83;46.23;100985.84;5060899;28;1096;-50
2023/12/30 11:21:33;;;;;;;;;;;;;;;15.83;47.27;100971.28;5074464;28;1893;-50
2023/12/30 11:24:00;;;;;;;;;;;;;;;15.51;46.92;100967.16;5057161;28;2259;-52
2023/12/30 11:26:27;;;;;;;;;;;;;;;17.40;45.48;100968.63;5069375;28;1144;-52
2023/12/30 11:28:52;;;;;;;;;;;;;;;16.18;47.07;100958.44;5058299;28;1104;-50
2023/12/30 11:31:18;;;;;;;;;;;;;;;15.74;47.25;100951.53;5056259;28;1079;-50
2023/12/30 11:33:44;;;;;;;;;;;;;;;15.74;48.13;100954.19;5047064;28;1075;-49
2023/12/30 11:36:09;;;;;;;;;;;;;;;16.73;46.54;100951.09;5056297;28;1093;-49
2023/12/30 11:38:35;;;;;;;;;;;;;;;15.92;48.20;100956.56;5042932;28;1103;-52
2023/12/30 11:41:02;;;;;;;;;;;;;;;17.84;44.65;100947.66;5045569;28;1960;-51
2023/12/30 11:43:28;;;;;;;;;;;;;;;16.72;46.40;100940.59;5036467;28;1007;-52
2023/12/30 11:45:54;;;;;;;;;;;;;;;15.98;47.39;100948.22;5037502;28;1088;-53
2023/12/30 11:48:20;;;;;;;;;;;;;;;15.78;46.96;100949.53;5054267;28;1096;-50
2023/12/30 11:50:51;;;;;;;;;;;;;;;16.99;46.52;100939.59;5055041;28;1301;-51
2023/12/30 11:53:17;;;;;;;;;;;;;;;16.07;47.25;100940.59;5054010;28;2220;-53
2023/12/30 11:55:43;;;;;;;;;;;;;;;15.78;46.93;100936.28;5055773;28;1214;-51
2023/12/30 11:58:08;;;;;;;;;;;;;;;15.79;47.53;100941.47;5053850;28;1070;-50
2023/12/30 12:00:34;;;;;;;;;;;;;;;16.32;47.13;100941.56;5055656;28;1948;-51
2023/12/30 12:02:59;;;;;;;;;;;;;;;15.77;47.27;100940.72;5055560;28;1203;-49
2023/12/30 12:05:25;;;;;;;;;;;;;;;15.60;47.79;100941.00;5055863;28;1242;-51
2023/12/30 12:07:51;;;;;;;;;;;;;;;17.55;45.33;100932.91;5054433;28;1266;-53
2023/12/30 12:10:16;;;;;;;;;;;;;;;16.24;46.97;100928.81;5052222;28;1304;-49
2023/12/30 12:12:45;;;;;;;;;;;;;;;15.77;47.32;100939.88;5052407;28;1250;-51
2023/12/30 12:15:11;;;;;;;;;;;;;;;16.11;47.71;100927.03;5051909;28;1274;-51
2023/12/30 12:17:36;;;;;;;;;;;;;;;16.65;46.43;100925.09;5049665;28;1065;-54
2023/12/30 12:20:04;;;;;;;;;;;;;;;15.94;47.41;100929.94;5055676;28;1219;-51
2023/12/30 12:22:30;;;;;;;;;;;;;;;15.66;46.85;100929.97;5050891;28;1983;-51
2023/12/30 12:24:56;;;;;;;;;;;;;;;16.77;46.76;100931.34;5036988;28;2558;-49
2023/12/30 12:27:22;;;;;;;;;;;;;;;16.30;46.97;100920.44;5054888;28;1297;-50
2023/12/30 12:29:51;;;;;;;;;;;;;;;15.88;47.40;100923.25;5040934;28;1114;-49
2023/12/30 12:32:20;;;;;;;;;;;;;;;15.64;46.83;100921.28;5050405;28;1071;-48
2023/12/30 12:34:46;;;;;;;;;;;;;;;17.25;46.04;100918.25;5068581;28;1078;-48
2023/12/30 12:37:14;;;;;;;;;;;;;;;16.10;47.42;100917.34;5062574;28;1206;-52
2023/12/30 12:39:39;;;;;;;;;;;;;;;15.74;46.86;100917.06;5075742;28;1102;-48
2023/12/30 12:42:05;;;;;;;;;;;;;;;17.16;46.21;100922.47;5075292;28;1902;-49